createdAt,value
2018-01-15T00:00:43.986Z,1.99
2018-01-15T00:01:43.979Z,1.97
2018-01-15T00:02:43.981Z,2.02
2018-01-15T00:03:43.979Z,1.94
2018-01-15T00:04:43.982Z,1.93
2018-01-15T00:05:43.978Z,1.94
2018-01-15T00:06:43.981Z,1.97
2018-01-15T00:07:43.982Z,1.90
2018-01-15T00:08:43.977Z,1.87
2018-01-15T00:09:43.981Z,1.98
2018-01-15T00:10:43.974Z,1.94
2018-01-15T00:11:43.984Z,1.91
2018-01-15T00:12:43.975Z,1.97
2018-01-15T00:13:43.981Z,1.79
2018-01-15T00:14:43.982Z,1.97
2018-01-15T00:15:43.975Z,1.91
2018-01-15T00:16:43.975Z,1.91
2018-01-15T00:17:43.976Z,1.90
2018-01-15T00:18:43.976Z,1.91
2018-01-15T00:19:43.971Z,1.90
2018-01-15T00:20:43.972Z,1.91
2018-01-15T00:21:43.976Z,1.93
2018-01-15T00:22:43.970Z,1.91
2018-01-15T00:23:43.971Z,1.85
2018-01-15T00:24:43.976Z,1.91
2018-01-15T00:25:43.975Z,1.91
2018-01-15T00:26:43.975Z,1.97
2018-01-15T00:27:43.971Z,1.90
2018-01-15T00:28:43.975Z,1.93
2018-01-15T00:29:43.970Z,1.90
2018-01-15T00:30:44.019Z,1.90
2018-01-15T00:31:43.970Z,1.93
2018-01-15T00:32:43.969Z,1.83
2018-01-15T00:33:44.022Z,1.93
2018-01-15T00:34:43.969Z,1.85
2018-01-15T00:35:43.971Z,1.83
2018-01-15T00:36:43.968Z,1.79
2018-01-15T00:37:43.972Z,1.90
2018-01-15T00:38:43.971Z,1.83
2018-01-15T00:39:43.967Z,1.82
2018-01-15T00:40:43.968Z,1.83
2018-01-15T00:41:43.966Z,1.82
2018-01-15T00:42:43.970Z,1.94
2018-01-15T00:43:43.968Z,1.76
2018-01-15T00:44:43.966Z,1.82
2018-01-15T00:45:43.969Z,1.91
2018-01-15T00:46:43.964Z,1.80
2018-01-15T00:47:43.967Z,1.82
2018-01-15T00:48:43.960Z,1.89
2018-01-15T00:49:43.968Z,1.87
2018-01-15T00:50:43.969Z,1.85
2018-01-15T00:51:43.958Z,1.94
2018-01-15T00:52:43.960Z,1.82
2018-01-15T00:53:43.969Z,1.89
2018-01-15T00:54:43.959Z,1.89
2018-01-15T00:55:43.962Z,1.82
2018-01-15T00:56:43.960Z,1.93
2018-01-15T00:57:43.964Z,1.83
2018-01-15T00:58:43.960Z,1.83
2018-01-15T00:59:43.957Z,1.93
2018-01-15T01:00:43.961Z,1.93
2018-01-15T01:01:43.965Z,1.93
2018-01-15T01:02:43.964Z,1.94
2018-01-15T01:03:43.959Z,1.94
2018-01-15T01:04:43.965Z,1.97
2018-01-15T01:05:43.958Z,1.93
2018-01-15T01:06:43.960Z,1.93
2018-01-15T01:07:43.965Z,1.91
2018-01-15T01:08:43.960Z,2.01
2018-01-15T01:09:43.956Z,2.01
2018-01-15T01:10:43.961Z,1.97
2018-01-15T01:11:43.964Z,2.02
2018-01-15T01:12:43.957Z,1.87
2018-01-15T01:13:43.957Z,1.93
2018-01-15T01:14:43.957Z,1.97
2018-01-15T01:15:43.959Z,1.78
2018-01-15T01:16:43.960Z,1.90
2018-01-15T01:17:43.960Z,2.04
2018-01-15T01:18:43.966Z,1.93
2018-01-15T01:19:43.955Z,1.91
2018-01-15T01:20:43.955Z,1.97
2018-01-15T01:21:43.960Z,1.98
2018-01-15T01:22:43.956Z,1.97
2018-01-15T01:23:43.954Z,1.87
2018-01-15T01:24:43.954Z,1.97
2018-01-15T01:25:43.956Z,1.89
2018-01-15T01:26:43.957Z,1.93
2018-01-15T01:27:43.957Z,1.94
2018-01-15T01:28:43.951Z,1.85
2018-01-15T01:29:43.956Z,1.78
2018-01-15T01:30:43.951Z,1.85
2018-01-15T01:31:43.957Z,1.87
2018-01-15T01:32:43.952Z,1.79
2018-01-15T01:33:43.956Z,1.78
2018-01-15T01:34:43.956Z,1.79
2018-01-15T01:35:43.949Z,1.82
2018-01-15T01:36:43.955Z,1.76
2018-01-15T01:37:43.950Z,1.82
2018-01-15T01:38:43.949Z,1.90
2018-01-15T01:39:43.951Z,1.80
2018-01-15T01:40:43.954Z,1.94
2018-01-15T01:41:43.951Z,1.94
2018-01-15T01:42:43.954Z,1.94
2018-01-15T01:43:43.949Z,1.98
2018-01-15T01:44:43.953Z,1.85
2018-01-15T01:45:43.948Z,1.87
2018-01-15T01:46:43.953Z,1.82
2018-01-15T01:47:43.949Z,1.85
2018-01-15T01:48:43.953Z,1.89
2018-01-15T01:49:43.947Z,1.80
2018-01-15T01:50:43.949Z,1.87
2018-01-15T01:51:43.950Z,1.87
2018-01-15T01:52:43.952Z,1.83
2018-01-15T01:53:43.949Z,1.79
2018-01-15T01:54:43.949Z,1.87
2018-01-15T01:55:43.945Z,1.83
2018-01-15T01:56:43.949Z,1.91
2018-01-15T01:57:43.946Z,1.93
2018-01-15T01:58:43.953Z,1.93
2018-01-15T01:59:43.951Z,1.97
2018-01-15T02:00:43.948Z,1.91
2018-01-15T02:01:43.945Z,1.99
2018-01-15T02:02:43.943Z,1.97
2018-01-15T02:03:43.948Z,1.94
2018-01-15T02:04:43.945Z,1.97
2018-01-15T02:05:43.946Z,1.98
2018-01-15T02:06:43.943Z,1.97
2018-01-15T02:07:43.946Z,1.93
2018-01-15T02:08:43.960Z,1.90
2018-01-15T02:09:43.945Z,2.01
2018-01-15T02:10:43.943Z,1.97
2018-01-15T02:11:43.942Z,1.94
2018-01-15T02:12:43.959Z,2.01
2018-01-15T02:13:43.942Z,1.94
2018-01-15T02:14:43.942Z,1.89
2018-01-15T02:15:43.944Z,2.01
2018-01-15T02:16:43.946Z,2.04
2018-01-15T02:17:43.944Z,2.01
2018-01-15T02:18:43.966Z,2.01
2018-01-15T02:19:43.945Z,1.97
2018-01-15T02:20:43.943Z,1.99
2018-01-15T02:21:43.944Z,1.94
2018-01-15T02:22:43.938Z,1.93
2018-01-15T02:23:43.949Z,1.94
2018-01-15T02:24:43.959Z,1.98
2018-01-15T02:25:43.944Z,1.98
2018-01-15T02:26:43.957Z,1.97
2018-01-15T02:27:43.940Z,2.01
2018-01-15T02:28:43.941Z,1.99
2018-01-15T02:29:43.945Z,2.01
2018-01-15T02:30:43.936Z,2.08
2018-01-15T02:31:43.943Z,2.09
2018-01-15T02:32:43.940Z,2.12
2018-01-15T02:33:43.946Z,2.15
2018-01-15T02:34:43.938Z,2.20
2018-01-15T02:35:43.942Z,2.26
2018-01-15T02:36:43.940Z,2.31
2018-01-15T02:37:43.942Z,2.27
2018-01-15T02:38:43.946Z,2.30
2018-01-15T02:39:43.942Z,2.38
2018-01-15T02:40:43.941Z,2.30
2018-01-15T02:41:43.942Z,2.28
2018-01-15T02:42:43.946Z,2.30
2018-01-15T02:43:43.936Z,2.38
2018-01-15T02:44:43.942Z,2.34
2018-01-15T02:45:43.937Z,2.51
2018-01-15T02:46:43.965Z,2.40
2018-01-15T02:47:43.941Z,2.48
2018-01-15T02:48:43.942Z,2.49
2018-01-15T02:49:43.943Z,2.46
2018-01-15T02:50:43.936Z,2.48
2018-01-15T02:51:43.944Z,2.53
2018-01-15T02:52:43.944Z,2.49
2018-01-15T02:53:43.939Z,2.49
2018-01-15T02:54:43.936Z,2.48
2018-01-15T02:55:43.951Z,2.52
2018-01-15T02:56:43.948Z,2.61
2018-01-15T02:57:43.943Z,2.52
2018-01-15T02:58:43.943Z,2.51
2018-01-15T02:59:43.951Z,2.48
2018-01-15T03:00:43.942Z,2.45
2018-01-15T03:01:43.945Z,2.44
2018-01-15T03:02:43.944Z,2.51
2018-01-15T03:03:43.943Z,2.44
2018-01-15T03:04:43.945Z,2.44
2018-01-15T03:05:43.952Z,2.48
2018-01-15T03:06:43.948Z,2.49
2018-01-15T03:07:43.941Z,2.48
2018-01-15T03:08:43.951Z,2.44
2018-01-15T03:09:43.951Z,2.49
2018-01-15T03:10:43.944Z,2.49
2018-01-15T03:11:43.948Z,2.49
2018-01-15T03:12:43.957Z,2.59
2018-01-15T03:13:43.960Z,2.56
2018-01-15T03:14:43.945Z,2.53
2018-01-15T03:15:43.949Z,2.67
2018-01-15T03:16:43.949Z,2.61
2018-01-15T03:17:43.946Z,2.59
2018-01-15T03:18:43.952Z,2.55
2018-01-15T03:19:43.955Z,2.64
2018-01-15T03:20:43.946Z,2.63
2018-01-15T03:21:43.954Z,2.59
2018-01-15T03:22:43.953Z,2.59
2018-01-15T03:23:43.952Z,2.55
2018-01-15T03:24:43.947Z,2.61
2018-01-15T03:25:43.949Z,2.69
2018-01-15T03:26:43.951Z,2.66
2018-01-15T03:27:43.950Z,2.64
2018-01-15T03:28:43.949Z,2.73
2018-01-15T03:29:43.968Z,2.63
2018-01-15T03:30:43.950Z,2.81
2018-01-15T03:31:43.954Z,2.71
2018-01-15T03:32:43.954Z,2.76
2018-01-15T03:33:43.970Z,2.73
2018-01-15T03:34:43.958Z,2.73
2018-01-15T03:35:43.952Z,2.77
2018-01-15T03:36:43.956Z,2.69
2018-01-15T03:37:43.953Z,2.74
2018-01-15T03:38:43.966Z,2.79
2018-01-15T03:39:43.951Z,2.82
2018-01-15T03:40:43.973Z,2.76
2018-01-15T03:41:43.955Z,2.88
2018-01-15T03:42:43.961Z,2.87
2018-01-15T03:43:43.957Z,2.85
2018-01-15T03:44:43.957Z,2.87
2018-01-15T03:45:43.959Z,2.85
2018-01-15T03:46:43.962Z,2.97
2018-01-15T03:47:43.958Z,2.85
2018-01-15T03:48:43.964Z,2.85
2018-01-15T03:49:43.963Z,2.87
2018-01-15T03:50:43.966Z,2.81
2018-01-15T03:51:44.641Z,2.89
2018-01-15T03:52:43.966Z,2.77
2018-01-15T03:53:43.965Z,2.82
2018-01-15T03:54:43.964Z,2.81
2018-01-15T03:55:43.965Z,2.67
2018-01-15T03:56:43.967Z,2.71
2018-01-15T03:57:43.964Z,2.66
2018-01-15T03:58:43.980Z,2.69
2018-01-15T03:59:43.968Z,2.69
2018-01-15T04:00:43.968Z,2.58
2018-01-15T04:01:43.972Z,2.61
2018-01-15T04:02:43.973Z,2.66
2018-01-15T04:03:43.968Z,2.59
2018-01-15T04:04:43.979Z,2.56
2018-01-15T04:05:43.969Z,2.61
2018-01-15T04:06:43.972Z,2.59
2018-01-15T04:07:43.973Z,2.59
2018-01-15T04:08:43.969Z,2.66
2018-01-15T04:09:43.979Z,2.58
2018-01-15T04:10:43.972Z,2.58
2018-01-15T04:11:43.976Z,2.61
2018-01-15T04:12:43.972Z,2.67
2018-01-15T04:13:43.971Z,2.71
2018-01-15T04:14:43.972Z,2.73
2018-01-15T04:15:43.973Z,2.67
2018-01-15T04:16:43.974Z,2.79
2018-01-15T04:17:43.975Z,2.79
2018-01-15T04:18:43.973Z,2.79
2018-01-15T04:19:43.981Z,2.82
2018-01-15T04:20:43.972Z,2.79
2018-01-15T04:21:44.000Z,2.71
2018-01-15T04:22:43.975Z,2.79
2018-01-15T04:23:43.984Z,2.74
2018-01-15T04:24:43.977Z,2.79
2018-01-15T04:25:43.976Z,2.77
2018-01-15T04:26:43.980Z,2.85
2018-01-15T04:27:43.980Z,2.73
2018-01-15T04:28:43.993Z,2.82
2018-01-15T04:29:43.975Z,2.81
2018-01-15T04:30:43.979Z,2.79
2018-01-15T04:31:43.980Z,2.81
2018-01-15T04:32:43.977Z,2.76
2018-01-15T04:33:43.977Z,2.76
2018-01-15T04:34:43.979Z,2.76
2018-01-15T04:35:43.978Z,2.77
2018-01-15T04:36:43.981Z,2.76
2018-01-15T04:37:43.980Z,2.81
2018-01-15T04:38:43.975Z,2.74
2018-01-15T04:39:43.976Z,2.74
2018-01-15T04:40:43.986Z,2.71
2018-01-15T04:41:43.978Z,2.71
2018-01-15T04:42:43.980Z,2.73
2018-01-15T04:43:43.978Z,2.67
2018-01-15T04:44:43.984Z,2.70
2018-01-15T04:45:43.983Z,2.70
2018-01-15T04:46:43.985Z,2.81
2018-01-15T04:47:43.978Z,2.81
2018-01-15T04:48:43.982Z,2.77
2018-01-15T04:49:43.981Z,2.79
2018-01-15T04:50:43.982Z,2.84
2018-01-15T04:51:43.977Z,2.81
2018-01-15T04:52:43.983Z,2.77
2018-01-15T04:53:43.996Z,2.89
2018-01-15T04:54:43.983Z,2.87
2018-01-15T04:55:43.983Z,2.82
2018-01-15T04:56:43.979Z,2.84
2018-01-15T04:57:43.981Z,2.87
2018-01-15T04:58:43.984Z,2.92
2018-01-15T04:59:43.986Z,2.95
2018-01-15T05:00:43.984Z,2.95
2018-01-15T05:01:43.988Z,2.98
2018-01-15T05:02:43.987Z,3.06
2018-01-15T05:03:43.978Z,3.00
2018-01-15T05:04:43.983Z,2.97
2018-01-15T05:05:43.986Z,2.98
2018-01-15T05:06:43.988Z,3.00
2018-01-15T05:07:43.982Z,3.00
2018-01-15T05:08:43.983Z,2.98
2018-01-15T05:09:43.991Z,3.00
2018-01-15T05:10:43.985Z,2.98
2018-01-15T05:11:43.989Z,3.00
2018-01-15T05:12:43.990Z,2.98
2018-01-15T05:13:43.993Z,3.02
2018-01-15T05:14:43.984Z,3.00
2018-01-15T05:15:43.986Z,2.98
2018-01-15T05:16:43.991Z,3.02
2018-01-15T05:17:43.987Z,3.00
2018-01-15T05:18:43.996Z,3.10
2018-01-15T05:19:43.982Z,2.98
2018-01-15T05:20:43.986Z,3.00
2018-01-15T05:21:43.991Z,3.03
2018-01-15T05:22:43.992Z,3.05
2018-01-15T05:23:43.990Z,3.05
2018-01-15T05:24:43.985Z,3.07
2018-01-15T05:25:44.004Z,3.07
2018-01-15T05:26:43.989Z,3.09
2018-01-15T05:27:43.996Z,3.10
2018-01-15T05:28:43.993Z,3.10
2018-01-15T05:29:43.995Z,3.10
2018-01-15T05:30:43.992Z,3.21
2018-01-15T05:31:43.994Z,3.20
2018-01-15T05:32:44.005Z,3.18
2018-01-15T05:33:43.992Z,3.27
2018-01-15T05:34:43.999Z,3.20
2018-01-15T05:35:43.997Z,3.25
2018-01-15T05:36:43.994Z,3.23
2018-01-15T05:37:43.998Z,3.28
2018-01-15T05:38:43.994Z,3.28
2018-01-15T05:39:43.997Z,3.34
2018-01-15T05:40:43.999Z,3.28
2018-01-15T05:41:44.012Z,3.28
2018-01-15T05:42:44.002Z,3.25
2018-01-15T05:43:44.005Z,3.42
2018-01-15T05:44:44.002Z,3.43
2018-01-15T05:45:44.005Z,3.42
2018-01-15T05:46:44.000Z,3.40
2018-01-15T05:47:43.997Z,3.34
2018-01-15T05:48:44.005Z,3.34
2018-01-15T05:49:44.003Z,3.36
2018-01-15T05:50:44.008Z,3.44
2018-01-15T05:51:44.006Z,3.33
2018-01-15T05:52:44.002Z,3.40
2018-01-15T05:53:44.006Z,3.49
2018-01-15T05:54:44.005Z,3.50
2018-01-15T05:55:44.007Z,3.44
2018-01-15T05:56:44.003Z,3.58
2018-01-15T05:57:44.002Z,3.64
2018-01-15T05:58:44.011Z,3.65
2018-01-15T05:59:44.672Z,3.58
2018-01-15T06:00:44.008Z,3.68
2018-01-15T06:01:44.035Z,3.61
2018-01-15T06:02:44.007Z,3.61
2018-01-15T06:03:44.007Z,3.72
2018-01-15T06:04:44.013Z,3.67
2018-01-15T06:05:44.010Z,3.68
2018-01-15T06:06:44.009Z,3.71
2018-01-15T06:07:44.010Z,3.65
2018-01-15T06:08:44.016Z,3.68
2018-01-15T06:09:44.020Z,3.76
2018-01-15T06:10:44.013Z,3.72
2018-01-15T06:11:44.012Z,3.71
2018-01-15T06:12:44.017Z,3.72
2018-01-15T06:13:44.018Z,3.68
2018-01-15T06:14:44.017Z,3.76
2018-01-15T06:15:44.022Z,3.80
2018-01-15T06:16:44.014Z,3.83
2018-01-15T06:17:44.025Z,3.82
2018-01-15T06:18:44.029Z,3.80
2018-01-15T06:19:44.027Z,3.86
2018-01-15T06:20:44.020Z,3.79
2018-01-15T06:21:44.034Z,3.96
2018-01-15T06:22:44.020Z,3.86
2018-01-15T06:23:44.025Z,3.90
2018-01-15T06:24:44.027Z,3.98
2018-01-15T06:25:44.030Z,4.01
2018-01-15T06:26:44.028Z,3.94
2018-01-15T06:27:44.028Z,3.94
2018-01-15T06:28:44.028Z,4.04
2018-01-15T06:29:44.031Z,4.06
2018-01-15T06:30:44.032Z,4.00
2018-01-15T06:31:44.038Z,4.10
2018-01-15T06:32:44.034Z,4.10
2018-01-15T06:33:44.032Z,4.18
2018-01-15T06:34:44.035Z,4.14
2018-01-15T06:35:44.033Z,4.15
2018-01-15T06:36:44.037Z,4.18
2018-01-15T06:37:44.036Z,4.16
2018-01-15T06:38:44.040Z,4.15
2018-01-15T06:39:44.037Z,4.16
2018-01-15T06:40:44.041Z,4.21
2018-01-15T06:41:44.037Z,4.18
2018-01-15T06:42:44.042Z,4.18
2018-01-15T06:43:44.059Z,4.19
2018-01-15T06:44:44.052Z,4.21
2018-01-15T06:45:44.040Z,4.22
2018-01-15T06:46:44.048Z,4.21
2018-01-15T06:47:44.048Z,4.21
2018-01-15T06:48:44.042Z,4.15
2018-01-15T06:49:44.094Z,4.21
2018-01-15T06:50:44.052Z,4.24
2018-01-15T06:51:44.075Z,4.29
2018-01-15T06:52:44.058Z,4.25
2018-01-15T06:53:44.052Z,4.22
2018-01-15T06:54:44.056Z,4.26
2018-01-15T06:55:44.061Z,4.34
2018-01-15T06:56:44.055Z,4.29
2018-01-15T06:57:44.056Z,4.32
2018-01-15T06:58:44.060Z,4.33
2018-01-15T06:59:44.060Z,4.24
2018-01-15T07:00:44.054Z,4.26
2018-01-15T07:01:44.058Z,4.24
2018-01-15T07:02:44.073Z,4.29
2018-01-15T07:03:44.063Z,4.33
2018-01-15T07:04:44.075Z,4.32
2018-01-15T07:05:44.088Z,4.40
2018-01-15T07:06:44.062Z,4.37
2018-01-15T07:07:44.066Z,4.34
2018-01-15T07:08:44.072Z,4.39
2018-01-15T07:09:44.073Z,4.34
2018-01-15T07:10:44.069Z,4.36
2018-01-15T07:11:44.072Z,4.26
2018-01-15T07:12:44.074Z,4.34
2018-01-15T07:13:44.088Z,4.34
2018-01-15T07:14:44.074Z,4.40
2018-01-15T07:15:44.077Z,4.36
2018-01-15T07:16:44.081Z,4.40
2018-01-15T07:17:44.083Z,4.36
2018-01-15T07:18:44.078Z,4.36
2018-01-15T07:19:44.086Z,4.28
2018-01-15T07:20:44.080Z,4.32
2018-01-15T07:21:44.085Z,4.24
2018-01-15T07:22:44.087Z,4.33
2018-01-15T07:23:44.089Z,4.25
2018-01-15T07:24:44.087Z,4.25
2018-01-15T07:25:44.089Z,4.25
2018-01-15T07:26:44.090Z,4.32
2018-01-15T07:27:44.119Z,4.34
2018-01-15T07:28:44.089Z,4.34
2018-01-15T07:29:44.095Z,4.37
2018-01-15T07:30:44.087Z,4.34
2018-01-15T07:31:44.098Z,4.37
2018-01-15T07:32:44.101Z,4.50
2018-01-15T07:33:44.160Z,4.47
2018-01-15T07:34:44.096Z,4.39
2018-01-15T07:35:44.101Z,4.46
2018-01-15T07:36:44.100Z,4.50
2018-01-15T07:37:44.112Z,4.50
2018-01-15T07:38:44.102Z,4.54
2018-01-15T07:39:44.105Z,4.51
2018-01-15T07:40:44.104Z,4.50
2018-01-15T07:41:44.109Z,4.59
2018-01-15T07:42:44.107Z,4.57
2018-01-15T07:43:44.103Z,4.55
2018-01-15T07:44:44.110Z,4.57
2018-01-15T07:45:44.107Z,4.58
2018-01-15T07:46:44.114Z,4.57
2018-01-15T07:47:44.114Z,4.52
2018-01-15T07:48:44.114Z,4.61
2018-01-15T07:49:44.117Z,4.62
2018-01-15T07:50:44.138Z,4.69
2018-01-15T07:51:44.126Z,4.62
2018-01-15T07:52:44.127Z,4.64
2018-01-15T07:53:44.118Z,4.64
2018-01-15T07:54:44.149Z,4.67
2018-01-15T07:55:44.124Z,4.69
2018-01-15T07:56:44.128Z,4.69
2018-01-15T07:57:44.126Z,4.75
2018-01-15T07:58:44.129Z,4.62
2018-01-15T07:59:44.130Z,4.65
2018-01-15T08:00:44.126Z,4.62
2018-01-15T08:01:44.132Z,4.67
2018-01-15T08:02:44.141Z,4.70
2018-01-15T08:03:44.136Z,4.69
2018-01-15T08:04:44.129Z,4.72
2018-01-15T08:05:44.133Z,4.73
2018-01-15T08:06:44.136Z,4.72
2018-01-15T08:07:44.141Z,4.75
2018-01-15T08:08:44.142Z,4.75
2018-01-15T08:09:44.139Z,4.77
2018-01-15T08:10:44.144Z,4.84
2018-01-15T08:11:44.143Z,4.84
2018-01-15T08:12:44.143Z,4.94
2018-01-15T08:13:44.145Z,4.92
2018-01-15T08:14:44.148Z,4.92
2018-01-15T08:15:44.144Z,4.89
2018-01-15T08:16:44.154Z,4.94
2018-01-15T08:17:44.153Z,4.98
2018-01-15T08:18:44.152Z,5.09
2018-01-15T08:19:44.153Z,4.99
2018-01-15T08:20:44.156Z,5.07
2018-01-15T08:21:44.161Z,5.13
2018-01-15T08:22:44.156Z,5.04
2018-01-15T08:23:44.160Z,5.16
2018-01-15T08:24:44.164Z,5.10
2018-01-15T08:25:44.164Z,5.07
2018-01-15T08:26:44.163Z,5.10
2018-01-15T08:27:44.168Z,5.19
2018-01-15T08:28:44.166Z,5.12
2018-01-15T08:29:44.173Z,5.14
2018-01-15T08:30:44.187Z,5.14
2018-01-15T08:31:44.163Z,5.19
2018-01-15T08:32:44.202Z,5.19
2018-01-15T08:33:44.209Z,5.13
2018-01-15T08:34:44.175Z,5.17
2018-01-15T08:35:44.177Z,5.25
2018-01-15T08:36:44.179Z,5.25
2018-01-15T08:37:44.203Z,5.17
2018-01-15T08:38:44.181Z,5.25
2018-01-15T08:39:44.185Z,5.25
2018-01-15T08:40:44.184Z,5.27
2018-01-15T08:41:44.197Z,5.19
2018-01-15T08:42:44.187Z,5.25
2018-01-15T08:43:44.195Z,5.20
2018-01-15T08:44:44.194Z,5.23
2018-01-15T08:45:44.192Z,5.30
2018-01-15T08:46:44.197Z,5.32
2018-01-15T08:47:44.195Z,5.37
2018-01-15T08:48:44.201Z,5.34
2018-01-15T08:49:44.198Z,5.35
2018-01-15T08:50:44.204Z,5.41
2018-01-15T08:51:44.201Z,5.35
2018-01-15T08:52:44.212Z,5.31
2018-01-15T08:53:44.209Z,5.37
2018-01-15T08:54:44.209Z,5.40
2018-01-15T08:55:44.209Z,5.40
2018-01-15T08:56:44.215Z,5.34
2018-01-15T08:57:44.213Z,5.46
2018-01-15T08:58:44.217Z,5.53
2018-01-15T08:59:44.231Z,5.55
2018-01-15T09:00:44.236Z,5.59
2018-01-15T09:01:44.222Z,5.70
2018-01-15T09:02:44.222Z,5.71
2018-01-15T09:03:44.224Z,5.75
2018-01-15T09:04:44.238Z,5.75
2018-01-15T09:05:44.238Z,5.81
2018-01-15T09:06:44.224Z,5.81
2018-01-15T09:07:44.230Z,5.77
2018-01-15T09:08:44.230Z,5.86
2018-01-15T09:09:44.236Z,5.78
2018-01-15T09:10:44.240Z,5.75
2018-01-15T09:11:44.232Z,5.86
2018-01-15T09:12:44.243Z,5.88
2018-01-15T09:13:44.246Z,5.93
2018-01-15T09:14:44.242Z,5.96
2018-01-15T09:15:44.247Z,6.03
2018-01-15T09:16:44.246Z,6.00
2018-01-15T09:17:44.250Z,5.98
2018-01-15T09:18:44.250Z,6.06
2018-01-15T09:19:44.252Z,6.13
2018-01-15T09:20:44.257Z,6.16
2018-01-15T09:21:44.267Z,6.16
2018-01-15T09:22:44.257Z,6.25
2018-01-15T09:23:44.258Z,6.26
2018-01-15T09:24:44.264Z,6.25
2018-01-15T09:25:44.268Z,6.29
2018-01-15T09:26:44.267Z,6.25
2018-01-15T09:27:44.269Z,6.33
2018-01-15T09:28:44.275Z,6.25
2018-01-15T09:29:44.274Z,6.40
2018-01-15T09:30:44.279Z,6.43
2018-01-15T09:31:44.313Z,6.43
2018-01-15T09:32:44.279Z,6.36
2018-01-15T09:33:44.285Z,6.48
2018-01-15T09:34:44.287Z,6.32
2018-01-15T09:35:44.288Z,6.38
2018-01-15T09:36:44.293Z,6.36
2018-01-15T09:37:44.290Z,6.53
2018-01-15T09:38:44.294Z,6.58
2018-01-15T09:39:44.298Z,6.56
2018-01-15T09:40:44.303Z,6.61
2018-01-15T09:41:44.298Z,6.58
2018-01-15T09:42:44.304Z,6.56
2018-01-15T09:43:44.305Z,6.61
2018-01-15T09:44:44.307Z,6.59
2018-01-15T09:45:44.308Z,6.65
2018-01-15T09:46:44.305Z,6.61
2018-01-15T09:47:44.314Z,6.59
2018-01-15T09:48:44.316Z,6.59
2018-01-15T09:49:44.318Z,6.61
2018-01-15T09:50:44.327Z,6.62
2018-01-15T09:51:44.323Z,6.68
2018-01-15T09:52:44.324Z,6.65
2018-01-15T09:53:44.330Z,6.63
2018-01-15T09:54:44.329Z,6.69
2018-01-15T09:55:44.331Z,6.62
2018-01-15T09:56:44.338Z,6.79
2018-01-15T09:57:44.340Z,6.73
2018-01-15T09:58:44.336Z,6.83
2018-01-15T09:59:44.362Z,6.77
2018-01-15T10:00:44.352Z,6.79
2018-01-15T10:01:44.346Z,6.84
2018-01-15T10:02:44.358Z,6.72
2018-01-15T10:03:44.352Z,6.79
2018-01-15T10:04:44.358Z,6.77
2018-01-15T10:05:44.361Z,6.97
2018-01-15T10:06:44.363Z,6.94
2018-01-15T10:07:44.363Z,6.99
2018-01-15T10:08:44.369Z,6.91
2018-01-15T10:09:44.368Z,7.02
2018-01-15T10:10:44.373Z,7.05
2018-01-15T10:11:44.373Z,7.13
2018-01-15T10:12:44.377Z,7.22
2018-01-15T10:13:44.379Z,7.26
2018-01-15T10:14:44.388Z,7.29
2018-01-15T10:15:44.384Z,7.29
2018-01-15T10:16:44.391Z,7.35
2018-01-15T10:17:44.398Z,7.37
2018-01-15T10:18:44.393Z,7.47
2018-01-15T10:19:44.397Z,7.41
2018-01-15T10:20:44.396Z,7.53
2018-01-15T10:21:44.399Z,7.49
2018-01-15T10:22:44.401Z,7.56
2018-01-15T10:23:44.409Z,7.58
2018-01-15T10:24:44.406Z,7.59
2018-01-15T10:25:44.415Z,7.52
2018-01-15T10:26:44.414Z,7.50
2018-01-15T10:27:44.426Z,7.55
2018-01-15T10:28:44.469Z,7.45
2018-01-15T10:29:44.431Z,7.47
2018-01-15T10:30:44.432Z,7.45
2018-01-15T10:31:44.429Z,7.45
2018-01-15T10:32:44.463Z,7.58
2018-01-15T10:33:44.438Z,7.52
2018-01-15T10:34:44.436Z,7.60
2018-01-15T10:35:44.441Z,7.63
2018-01-15T10:36:44.453Z,7.52
2018-01-15T10:37:44.455Z,7.58
2018-01-15T10:38:44.449Z,7.59
2018-01-15T10:39:44.456Z,7.59
2018-01-15T10:40:44.457Z,7.58
2018-01-15T10:41:44.458Z,7.63
2018-01-15T10:42:44.465Z,7.59
2018-01-15T10:43:44.469Z,7.58
2018-01-15T10:44:44.471Z,7.62
2018-01-15T10:45:44.473Z,7.58
2018-01-15T10:46:44.478Z,7.66
2018-01-15T10:47:44.480Z,7.72
2018-01-15T10:48:44.481Z,7.69
2018-01-15T10:49:44.482Z,7.63
2018-01-15T10:50:44.487Z,7.72
2018-01-15T10:51:44.490Z,7.66
2018-01-15T10:52:44.492Z,7.53
2018-01-15T10:53:44.501Z,7.59
2018-01-15T10:54:44.498Z,7.67
2018-01-15T10:55:44.500Z,7.59
2018-01-15T10:56:44.513Z,7.63
2018-01-15T10:57:44.507Z,7.55
2018-01-15T10:58:44.514Z,7.67
2018-01-15T10:59:44.526Z,7.69
2018-01-15T11:00:44.529Z,7.63
2018-01-15T11:01:44.519Z,7.69
2018-01-15T11:02:44.534Z,7.69
2018-01-15T11:03:44.526Z,7.69
2018-01-15T11:04:44.532Z,7.72
2018-01-15T11:05:44.533Z,7.78
2018-01-15T11:06:44.547Z,7.89
2018-01-15T11:07:44.537Z,7.99
2018-01-15T11:08:44.581Z,7.96
2018-01-15T11:09:44.544Z,7.94
2018-01-15T11:10:44.551Z,7.97
2018-01-15T11:11:44.597Z,7.92
2018-01-15T11:12:44.552Z,7.97
2018-01-15T11:13:44.561Z,8.08
2018-01-15T11:14:44.589Z,7.99
2018-01-15T11:15:44.569Z,7.94
2018-01-15T11:16:44.561Z,7.94
2018-01-15T11:17:44.582Z,8.03
2018-01-15T11:18:44.572Z,8.08
2018-01-15T11:19:44.614Z,8.11
2018-01-15T11:20:44.580Z,8.08
2018-01-15T11:21:44.585Z,8.12
2018-01-15T11:22:44.585Z,8.12
2018-01-15T11:23:44.592Z,8.15
2018-01-15T11:24:44.641Z,8.15
2018-01-15T11:25:44.599Z,8.28
2018-01-15T11:26:44.597Z,8.30
2018-01-15T11:27:44.613Z,8.32
2018-01-15T11:28:44.607Z,8.42
2018-01-15T11:29:44.609Z,8.50
2018-01-15T11:30:44.634Z,8.42
2018-01-15T11:31:44.637Z,8.40
2018-01-15T11:32:44.617Z,8.47
2018-01-15T11:33:44.621Z,8.42
2018-01-15T11:34:44.627Z,8.55
2018-01-15T11:35:44.628Z,8.53
2018-01-15T11:36:45.245Z,8.57
2018-01-15T11:37:44.645Z,8.54
2018-01-15T11:38:44.649Z,8.54
2018-01-15T11:39:44.644Z,8.55
2018-01-15T11:40:44.648Z,8.53
2018-01-15T11:41:44.653Z,8.62
2018-01-15T11:42:44.652Z,8.58
2018-01-15T11:43:44.655Z,8.57
2018-01-15T11:44:44.664Z,8.50
2018-01-15T11:45:44.665Z,8.40
2018-01-15T11:46:44.666Z,8.48
2018-01-15T11:47:44.672Z,8.42
2018-01-15T11:48:44.682Z,8.42
2018-01-15T11:49:44.681Z,8.40
2018-01-15T11:50:44.680Z,8.42
2018-01-15T11:51:44.687Z,8.39
2018-01-15T11:52:44.685Z,8.48
2018-01-15T11:53:44.689Z,8.47
2018-01-15T11:54:44.702Z,8.44
2018-01-15T11:55:44.699Z,8.44
2018-01-15T11:56:44.700Z,8.45
2018-01-15T11:57:44.707Z,8.48
2018-01-15T11:58:44.711Z,8.45
2018-01-15T11:59:44.716Z,8.48
2018-01-15T12:00:44.715Z,8.45
2018-01-15T12:01:44.721Z,8.54
2018-01-15T12:02:44.725Z,8.57
2018-01-15T12:03:44.734Z,8.58
2018-01-15T12:04:44.741Z,8.58
2018-01-15T12:05:44.734Z,8.58
2018-01-15T12:06:44.754Z,8.62
2018-01-15T12:07:44.740Z,8.57
2018-01-15T12:08:44.752Z,8.60
2018-01-15T12:09:44.748Z,8.68
2018-01-15T12:10:44.754Z,8.73
2018-01-15T12:11:44.754Z,8.65
2018-01-15T12:12:44.767Z,8.68
2018-01-15T12:13:44.760Z,8.73
2018-01-15T12:14:44.768Z,8.66
2018-01-15T12:15:44.768Z,8.65
2018-01-15T12:16:44.792Z,8.54
2018-01-15T12:17:44.776Z,8.54
2018-01-15T12:18:44.783Z,8.55
2018-01-15T12:19:44.797Z,8.55
2018-01-15T12:20:44.794Z,8.55
2018-01-15T12:21:44.798Z,8.47
2018-01-15T12:22:44.806Z,8.51
2018-01-15T12:23:44.800Z,8.47
2018-01-15T12:24:44.800Z,8.47
2018-01-15T12:25:44.803Z,8.44
2018-01-15T12:26:44.801Z,8.48
2018-01-15T12:27:44.811Z,8.44
2018-01-15T12:28:44.810Z,8.45
2018-01-15T12:29:44.820Z,8.50
2018-01-15T12:30:44.823Z,8.47
2018-01-15T12:31:44.826Z,8.42
2018-01-15T12:32:44.827Z,8.54
2018-01-15T12:33:44.835Z,8.45
2018-01-15T12:34:44.856Z,8.55
2018-01-15T12:35:44.842Z,8.55
2018-01-15T12:36:44.843Z,8.58
2018-01-15T12:37:45.259Z,8.50
2018-01-15T12:38:45.596Z,8.50
2018-01-15T12:39:44.853Z,8.55
2018-01-15T12:40:44.857Z,8.51
2018-01-15T12:41:44.858Z,8.50
2018-01-15T12:42:44.865Z,8.54
2018-01-15T12:43:44.858Z,8.45
2018-01-15T12:44:44.869Z,8.55
2018-01-15T12:45:44.877Z,8.53
2018-01-15T12:46:44.875Z,8.44
2018-01-15T12:47:44.877Z,8.50
2018-01-15T12:48:44.881Z,8.48
2018-01-15T12:49:44.886Z,8.53
2018-01-15T12:50:44.889Z,8.66
2018-01-15T12:51:44.889Z,8.62
2018-01-15T12:52:44.898Z,8.65
2018-01-15T12:53:44.897Z,8.51
2018-01-15T12:54:44.906Z,8.60
2018-01-15T12:55:44.905Z,8.57
2018-01-15T12:56:44.906Z,8.57
2018-01-15T12:57:44.911Z,8.58
2018-01-15T12:58:44.986Z,8.48
2018-01-15T12:59:44.919Z,8.51
2018-01-15T13:00:45.006Z,8.51
2018-01-15T13:01:44.932Z,8.47
2018-01-15T13:02:44.931Z,8.48
2018-01-15T13:03:44.937Z,8.54
2018-01-15T13:04:44.933Z,8.45
2018-01-15T13:05:44.944Z,8.51
2018-01-15T13:06:44.961Z,8.44
2018-01-15T13:07:44.967Z,8.50
2018-01-15T13:08:44.948Z,8.51
2018-01-15T13:09:44.966Z,8.40
2018-01-15T13:10:44.982Z,8.44
2018-01-15T13:11:44.964Z,8.40
2018-01-15T13:12:44.962Z,8.39
2018-01-15T13:13:44.964Z,8.32
2018-01-15T13:14:44.967Z,8.35
2018-01-15T13:15:44.975Z,8.39
2018-01-15T13:16:44.978Z,8.45
2018-01-15T13:17:44.983Z,8.39
2018-01-15T13:18:44.987Z,8.35